createdAt,value
2022-12-25T00:00:43.104Z,5.53
2022-12-25T00:03:45.964Z,5.52
2022-12-25T00:06:48.648Z,5.58
2022-12-25T00:09:51.379Z,5.73
2022-12-25T00:12:53.878Z,5.62
2022-12-25T00:15:56.410Z,5.54
2022-12-25T00:18:59.219Z,5.41
2022-12-25T00:22:01.706Z,5.52
2022-12-25T00:25:04.540Z,5.47
2022-12-25T00:28:06.997Z,5.46
2022-12-25T00:31:17.930Z,5.54
2022-12-25T00:34:21.882Z,5.44
2022-12-25T00:37:24.243Z,5.38
2022-12-25T00:40:26.845Z,5.36
2022-12-25T00:43:29.329Z,5.43
2022-12-25T00:46:31.848Z,5.50
2022-12-25T00:49:34.433Z,5.40
2022-12-25T00:52:37.100Z,5.45
2022-12-25T00:55:39.515Z,5.49
2022-12-25T00:58:41.926Z,5.40
2022-12-25T01:01:45.337Z,5.59
2022-12-25T01:04:49.167Z,5.53
2022-12-25T01:07:51.665Z,5.51
2022-12-25T01:11:00.485Z,5.63
2022-12-25T01:14:03.319Z,5.62
2022-12-25T01:17:05.736Z,5.63
2022-12-25T01:20:09.303Z,5.69
2022-12-25T01:23:12.123Z,5.88
2022-12-25T01:26:15.821Z,5.96
2022-12-25T01:29:18.280Z,6.19
2022-12-25T01:32:21.121Z,6.06
2022-12-25T01:35:24.051Z,6.23
2022-12-25T01:38:26.532Z,6.10
2022-12-25T01:41:29.110Z,6.20
2022-12-25T01:44:37.453Z,6.30
2022-12-25T01:47:40.101Z,6.08
2022-12-25T01:50:47.662Z,6.24
2022-12-25T01:53:50.354Z,6.43
2022-12-25T01:56:55.048Z,6.25
2022-12-25T01:59:59.997Z,6.50
2022-12-25T02:03:04.471Z,6.32
2022-12-25T02:06:07.776Z,6.20
2022-12-25T02:09:10.357Z,6.06
2022-12-25T02:12:24.117Z,6.01
2022-12-25T02:15:35.263Z,5.81
2022-12-25T02:18:46.573Z,5.75
2022-12-25T02:22:22.699Z,5.72
2022-12-25T02:25:53.357Z,5.69
2022-12-25T02:29:17.364Z,5.65
2022-12-25T02:32:28.894Z,5.63
2022-12-25T02:35:31.998Z,5.60
2022-12-25T02:39:00.528Z,5.54
2022-12-25T02:42:09.012Z,5.66
2022-12-25T02:45:33.143Z,5.48
2022-12-25T02:49:04.100Z,5.60
2022-12-25T02:52:32.289Z,5.54
2022-12-25T02:55:59.805Z,5.61
2022-12-25T02:59:22.423Z,5.41
2022-12-25T03:02:45.282Z,5.60
2022-12-25T03:06:09.199Z,5.54
2022-12-25T03:09:40.895Z,5.47
2022-12-25T03:12:52.263Z,5.47
2022-12-25T03:16:14.173Z,5.33
2022-12-25T03:19:37.128Z,5.31
2022-12-25T03:23:01.613Z,5.22
2022-12-25T03:26:23.129Z,5.17
2022-12-25T03:29:49.534Z,5.07
2022-12-25T03:32:59.001Z,4.94
2022-12-25T03:36:31.622Z,4.91
2022-12-25T03:39:49.483Z,4.96
2022-12-25T03:43:19.683Z,4.86
2022-12-25T03:46:44.173Z,4.96
2022-12-25T03:50:17.395Z,4.89
2022-12-25T03:54:06.705Z,4.88
2022-12-25T03:57:29.079Z,4.85
2022-12-25T04:00:50.146Z,4.67
2022-12-25T04:04:11.718Z,4.55
2022-12-25T04:07:32.769Z,4.49
2022-12-25T04:10:53.791Z,4.50
2022-12-25T04:14:14.496Z,4.44
2022-12-25T04:17:35.436Z,4.45
2022-12-25T04:20:56.166Z,4.56
2022-12-25T04:24:17.483Z,4.45
2022-12-25T04:27:38.471Z,4.40
2022-12-25T04:30:59.690Z,4.39
2022-12-25T04:34:20.807Z,4.44
2022-12-25T04:37:23.331Z,4.36
2022-12-25T04:40:26.025Z,4.38
2022-12-25T04:43:28.795Z,4.36
2022-12-25T04:46:31.442Z,4.25
2022-12-25T04:49:34.221Z,4.41
2022-12-25T04:52:38.508Z,4.19
2022-12-25T04:55:40.959Z,4.18
2022-12-25T04:58:44.448Z,4.14
2022-12-25T05:01:47.357Z,4.06
2022-12-25T05:04:49.834Z,3.87
2022-12-25T05:07:52.622Z,3.84
2022-12-25T05:10:55.279Z,3.88
2022-12-25T05:13:58.546Z,3.76
2022-12-25T05:17:01.158Z,3.80
2022-12-25T05:20:05.369Z,3.78
2022-12-25T05:23:11.673Z,3.74
2022-12-25T05:26:22.872Z,3.71
2022-12-25T05:29:25.480Z,3.80
2022-12-25T05:32:27.873Z,3.98
2022-12-25T05:35:30.351Z,3.79
2022-12-25T05:38:33.503Z,3.93
2022-12-25T05:41:35.959Z,3.70
2022-12-25T05:44:46.247Z,3.66
2022-12-25T05:47:48.663Z,3.59
2022-12-25T05:50:51.264Z,3.45
2022-12-25T05:53:53.819Z,3.53
2022-12-25T05:56:56.292Z,3.44
2022-12-25T05:59:58.837Z,3.34
2022-12-25T06:03:01.837Z,3.29
2022-12-25T06:06:04.761Z,3.16
2022-12-25T06:09:07.225Z,3.24
2022-12-25T06:12:09.677Z,3.22
2022-12-25T06:15:12.172Z,3.06
2022-12-25T06:18:14.959Z,2.96
2022-12-25T06:21:17.685Z,2.99
2022-12-25T06:24:21.629Z,2.85
2022-12-25T06:27:24.420Z,2.82
2022-12-25T06:30:26.951Z,2.64
2022-12-25T06:33:29.487Z,2.81
2022-12-25T06:36:32.185Z,2.73
2022-12-25T06:39:34.872Z,2.79
2022-12-25T06:42:37.273Z,2.70
2022-12-25T06:45:39.759Z,2.76
2022-12-25T06:48:47.983Z,2.64
2022-12-25T06:51:50.463Z,2.71
2022-12-25T06:54:52.916Z,2.80
2022-12-25T06:57:55.445Z,2.70
2022-12-25T07:00:58.064Z,2.78
2022-12-25T07:04:04.623Z,2.83
2022-12-25T07:07:09.245Z,2.85
2022-12-25T07:10:12.164Z,2.88
2022-12-25T07:13:14.555Z,2.86
2022-12-25T07:16:17.005Z,3.08
2022-12-25T07:19:19.825Z,3.07
2022-12-25T07:22:22.367Z,3.07
2022-12-25T07:25:24.834Z,3.15
2022-12-25T07:28:28.807Z,3.19
2022-12-25T07:31:31.405Z,3.13
2022-12-25T07:34:33.871Z,3.25
2022-12-25T07:37:36.393Z,3.44
2022-12-25T07:40:38.931Z,3.52
2022-12-25T07:43:42.055Z,3.67
2022-12-25T07:46:44.893Z,3.68
2022-12-25T07:49:47.893Z,3.70
2022-12-25T07:52:50.542Z,3.79
2022-12-25T07:56:00.486Z,3.95
2022-12-25T07:59:03.640Z,4.06
2022-12-25T08:02:06.764Z,3.99
2022-12-25T08:05:09.611Z,4.23
2022-12-25T08:08:12.215Z,4.27
2022-12-25T08:11:14.779Z,4.57
2022-12-25T08:14:17.459Z,4.63
2022-12-25T08:17:19.989Z,4.75
2022-12-25T08:20:22.521Z,4.93
2022-12-25T08:23:25.177Z,5.34
2022-12-25T08:26:27.685Z,5.66
2022-12-25T08:29:30.110Z,5.94
2022-12-25T08:32:34.226Z,5.99
2022-12-25T08:35:37.297Z,6.22
2022-12-25T08:38:40.225Z,6.36
2022-12-25T08:41:42.771Z,6.39
2022-12-25T08:44:45.247Z,6.64
2022-12-25T08:47:47.753Z,6.81
2022-12-25T08:50:52.287Z,6.83
2022-12-25T08:53:59.441Z,6.79
2022-12-25T08:57:03.289Z,6.95
2022-12-25T09:00:06.422Z,7.05
2022-12-25T09:03:09.137Z,7.14
2022-12-25T09:06:14.525Z,7.33
2022-12-25T09:09:17.143Z,7.26
2022-12-25T09:12:19.830Z,7.17
2022-12-25T09:15:22.382Z,7.20
2022-12-25T09:18:25.510Z,7.45
2022-12-25T09:21:27.957Z,8.05
2022-12-25T09:24:30.760Z,8.67
2022-12-25T09:27:33.277Z,9.66
2022-12-25T09:30:35.942Z,10.07
2022-12-25T09:33:40.389Z,10.55
2022-12-25T09:36:43.006Z,11.25
2022-12-25T09:39:46.594Z,11.63
2022-12-25T09:42:49.640Z,11.68
2022-12-25T09:45:52.308Z,11.30
2022-12-25T09:49:10.946Z,12.44
2022-12-25T09:52:20.502Z,13.30
2022-12-25T09:55:29.893Z,13.70
2022-12-25T09:58:33.773Z,12.95
2022-12-25T10:02:02.464Z,11.67
2022-12-25T10:05:32.506Z,10.50
2022-12-25T10:09:25.873Z,10.19
2022-12-25T10:12:50.532Z,11.47
2022-12-25T10:16:04.164Z,11.03
2022-12-25T10:19:38.165Z,10.91
2022-12-25T10:22:52.583Z,10.91
2022-12-25T10:25:55.600Z,11.22
2022-12-25T10:29:14.805Z,11.77
2022-12-25T10:32:17.774Z,13.67
2022-12-25T10:35:22.882Z,15.52
2022-12-25T10:38:25.579Z,17.11
2022-12-25T10:41:51.604Z,18.39
2022-12-25T10:45:02.368Z,18.79
2022-12-25T10:48:07.812Z,19.54
2022-12-25T10:51:10.644Z,19.77
2022-12-25T10:54:30.363Z,20.37
2022-12-25T10:57:45.618Z,20.96
2022-12-25T11:00:58.572Z,21.36
2022-12-25T11:04:01.081Z,21.72
2022-12-25T11:07:24.317Z,21.92
2022-12-25T11:10:33.131Z,22.82
2022-12-25T11:13:41.581Z,23.33
2022-12-25T11:16:44.669Z,23.19
2022-12-25T11:19:53.925Z,23.23
2022-12-25T11:22:56.345Z,23.62
2022-12-25T11:25:58.834Z,23.32
2022-12-25T11:29:01.380Z,23.71
2022-12-25T11:32:12.886Z,22.69
2022-12-25T11:38:20.263Z,24.13
2022-12-25T11:41:30.943Z,24.59
2022-12-25T11:44:48.821Z,24.91
2022-12-25T11:48:00.913Z,24.54
2022-12-25T11:51:05.966Z,24.07
2022-12-25T11:54:24.425Z,24.43
2022-12-25T11:57:29.906Z,24.44
2022-12-25T12:00:35.403Z,25.00
2022-12-25T12:03:41.307Z,24.62
2022-12-25T12:06:54.537Z,24.75
2022-12-25T12:10:09.567Z,25.18
2022-12-25T12:13:17.836Z,25.60
2022-12-25T12:16:20.447Z,25.75
2022-12-25T12:19:28.891Z,25.13
2022-12-25T12:22:31.447Z,25.55
2022-12-25T12:25:40.307Z,25.78
2022-12-25T12:28:46.365Z,25.67
2022-12-25T12:31:51.156Z,25.44
2022-12-25T12:34:54.647Z,25.37
2022-12-25T12:38:04.261Z,26.21
2022-12-25T12:41:08.768Z,25.96
2022-12-25T12:44:12.836Z,25.49
2022-12-25T12:47:50.660Z,25.00
2022-12-25T12:51:04.732Z,24.91
2022-12-25T12:54:24.012Z,25.18
2022-12-25T12:57:29.915Z,25.51
2022-12-25T13:00:50.270Z,25.73
2022-12-25T13:04:17.663Z,24.55
2022-12-25T13:07:44.041Z,23.21
2022-12-25T13:11:03.491Z,20.20
2022-12-25T13:14:06.206Z,18.80
2022-12-25T13:17:09.010Z,17.75
2022-12-25T13:20:28.885Z,17.47
2022-12-25T13:23:34.529Z,17.67
2022-12-25T13:26:39.347Z,16.98
2022-12-25T13:29:41.896Z,17.03
2022-12-25T13:32:45.815Z,16.58
2022-12-25T13:35:48.907Z,18.29
2022-12-25T13:38:54.034Z,16.44
2022-12-25T13:42:05.938Z,15.67
2022-12-25T13:45:14.199Z,15.24
2022-12-25T13:48:17.817Z,14.74
2022-12-25T13:51:20.616Z,14.30
2022-12-25T13:54:23.135Z,14.12
2022-12-25T13:57:37.161Z,13.90
2022-12-25T14:00:48.257Z,13.72
2022-12-25T14:03:50.917Z,13.48
2022-12-25T14:06:53.345Z,13.19
2022-12-25T14:10:01.880Z,13.11
2022-12-25T14:13:07.534Z,12.86
2022-12-25T14:16:11.453Z,12.57
2022-12-25T14:19:34.343Z,12.35
2022-12-25T14:22:38.656Z,12.19
2022-12-25T14:25:44.182Z,12.07
2022-12-25T14:28:48.980Z,11.95
2022-12-25T14:31:52.711Z,11.93
2022-12-25T14:34:59.423Z,11.84
2022-12-25T14:38:02.097Z,11.86
2022-12-25T14:41:22.611Z,11.76
2022-12-25T14:44:39.548Z,11.77
2022-12-25T14:47:58.998Z,11.62
2022-12-25T14:51:15.867Z,11.62
2022-12-25T14:54:23.192Z,11.49
2022-12-25T14:57:29.798Z,11.42
2022-12-25T15:00:36.543Z,11.45
2022-12-25T15:03:38.987Z,11.42
2022-12-25T15:07:00.487Z,11.37
2022-12-25T15:13:31.622Z,11.24
2022-12-25T15:16:49.536Z,11.28
2022-12-25T15:19:54.595Z,11.01
2022-12-25T15:23:18.925Z,11.24
2022-12-25T15:26:22.027Z,11.11
2022-12-25T15:29:52.258Z,11.15
2022-12-25T15:32:47.707Z,11.16
2022-12-25T15:35:50.162Z,10.86
2022-12-25T15:38:53.534Z,11.04
2022-12-25T15:42:10.957Z,10.81
2022-12-25T15:45:20.828Z,10.85
2022-12-25T15:48:23.836Z,10.81
2022-12-25T15:51:26.817Z,10.80
2022-12-25T15:54:30.291Z,10.82
2022-12-25T15:57:33.391Z,10.79
2022-12-25T16:00:35.876Z,10.74
2022-12-25T16:03:38.683Z,10.72
2022-12-25T16:06:41.307Z,10.77
2022-12-25T16:09:44.258Z,10.63
2022-12-25T16:12:47.060Z,10.71
2022-12-25T16:15:49.579Z,10.61
2022-12-25T16:18:52.037Z,10.47
2022-12-25T16:21:54.976Z,10.42
2022-12-25T16:24:57.845Z,10.56
2022-12-25T16:28:03.124Z,10.37
2022-12-25T16:31:05.787Z,10.43
2022-12-25T16:34:09.499Z,10.37
2022-12-25T16:37:12.715Z,10.37
2022-12-25T16:40:15.241Z,10.30
2022-12-25T16:43:23.803Z,10.35
2022-12-25T16:46:26.866Z,10.27
2022-12-25T16:49:29.440Z,10.18
2022-12-25T16:52:33.597Z,10.25
2022-12-25T16:55:39.478Z,10.25
2022-12-25T16:58:44.274Z,10.18
2022-12-25T17:01:46.891Z,10.23
2022-12-25T17:04:49.429Z,10.15
2022-12-25T17:07:51.923Z,10.06
2022-12-25T17:10:54.744Z,10.15
2022-12-25T17:14:03.649Z,10.09
2022-12-25T17:17:06.212Z,9.99
2022-12-25T17:20:09.349Z,10.03
2022-12-25T17:23:11.777Z,10.04
2022-12-25T17:26:14.239Z,10.03
2022-12-25T17:29:21.641Z,10.00
2022-12-25T17:32:24.267Z,9.99
2022-12-25T17:35:26.906Z,9.85
2022-12-25T17:38:31.451Z,9.93
2022-12-25T17:41:34.355Z,9.82
2022-12-25T17:44:36.812Z,9.74
2022-12-25T17:47:39.220Z,9.80
2022-12-25T17:50:41.903Z,9.80
2022-12-25T17:53:47.187Z,9.67
2022-12-25T17:56:49.732Z,9.68
2022-12-25T17:59:52.216Z,9.60
2022-12-25T18:02:54.716Z,9.60
2022-12-25T18:06:00.432Z,9.69
2022-12-25T18:09:06.221Z,9.57
2022-12-25T18:12:09.424Z,9.61
2022-12-25T18:15:12.538Z,9.54
2022-12-25T18:18:15.242Z,9.61
2022-12-25T18:21:17.776Z,9.57
2022-12-25T18:24:20.289Z,9.67
2022-12-25T18:27:23.119Z,9.42
2022-12-25T18:30:25.828Z,9.46
2022-12-25T18:33:28.699Z,9.35
2022-12-25T18:36:31.363Z,9.30
2022-12-25T18:39:34.190Z,9.27
2022-12-25T18:42:39.576Z,9.28
2022-12-25T18:45:42.832Z,9.19
2022-12-25T18:48:45.319Z,9.18
2022-12-25T18:51:49.093Z,9.11
2022-12-25T18:54:51.540Z,9.14
2022-12-25T18:57:54.422Z,9.21
2022-12-25T19:00:57.124Z,9.01
2022-12-25T19:04:05.218Z,8.98
2022-12-25T19:07:08.299Z,8.95
2022-12-25T19:10:10.843Z,8.69
2022-12-25T19:13:13.420Z,8.57
2022-12-25T19:16:16.487Z,8.60
2022-12-25T19:19:21.727Z,8.46
2022-12-25T19:22:24.258Z,8.51
2022-12-25T19:25:27.955Z,8.56
2022-12-25T19:28:30.371Z,8.58
2022-12-25T19:31:33.264Z,8.57
2022-12-25T19:34:36.062Z,8.69
2022-12-25T19:37:38.521Z,8.67
2022-12-25T19:41:00.444Z,8.79
2022-12-25T19:44:06.418Z,8.87
2022-12-25T19:47:10.743Z,8.95
2022-12-25T19:50:13.617Z,9.12
2022-12-25T19:53:17.518Z,9.05
2022-12-25T19:56:20.064Z,9.16
2022-12-25T19:59:22.591Z,9.20
2022-12-25T20:02:25.161Z,9.24
2022-12-25T20:05:30.821Z,9.17
2022-12-25T20:08:33.758Z,9.14
2022-12-25T20:11:37.356Z,9.20
2022-12-25T20:14:39.787Z,9.22
2022-12-25T20:17:42.309Z,9.04
2022-12-25T20:20:47.933Z,9.06
2022-12-25T20:23:52.338Z,9.15
2022-12-25T20:26:58.984Z,9.04
2022-12-25T20:30:02.253Z,9.05
2022-12-25T20:33:06.877Z,9.09
2022-12-25T20:36:09.775Z,9.13
2022-12-25T20:39:13.032Z,9.27
2022-12-25T20:42:15.528Z,9.37
2022-12-25T20:45:18.002Z,9.35
2022-12-25T20:48:21.262Z,9.38
2022-12-25T20:51:26.876Z,9.37
2022-12-25T20:54:29.350Z,9.44
2022-12-25T20:57:31.935Z,9.33
2022-12-25T21:00:34.398Z,9.28
2022-12-25T21:03:37.605Z,9.29
2022-12-25T21:06:40.215Z,9.13
2022-12-25T21:09:43.133Z,9.22
2022-12-25T21:12:45.640Z,9.20
2022-12-25T21:15:49.767Z,9.20
2022-12-25T21:18:53.975Z,9.17
2022-12-25T21:21:56.428Z,9.09
2022-12-25T21:24:58.916Z,9.00
2022-12-25T21:28:01.364Z,9.00
2022-12-25T21:31:05.696Z,9.08
2022-12-25T21:34:08.216Z,9.02
2022-12-25T21:37:11.724Z,8.85
2022-12-25T21:40:16.561Z,8.92
2022-12-25T21:43:19.878Z,8.85
2022-12-25T21:46:22.804Z,8.80
2022-12-25T21:49:44.031Z,8.73
2022-12-25T21:52:46.465Z,8.76
2022-12-25T21:56:00.633Z,8.66
2022-12-25T21:59:05.608Z,8.58
2022-12-25T22:02:11.458Z,8.68
2022-12-25T22:05:34.424Z,8.62
2022-12-25T22:08:37.171Z,8.68
2022-12-25T22:11:58.470Z,8.63
2022-12-25T22:15:07.191Z,8.54
2022-12-25T22:18:28.110Z,8.61
2022-12-25T22:21:30.629Z,8.64
2022-12-25T22:24:33.155Z,8.57
2022-12-25T22:27:38.095Z,8.57
2022-12-25T22:30:44.593Z,8.49
2022-12-25T22:33:47.111Z,8.52
2022-12-25T22:36:50.245Z,8.48
2022-12-25T22:39:52.837Z,8.49
2022-12-25T22:42:56.160Z,8.49
2022-12-25T22:46:00.296Z,8.40
2022-12-25T22:49:02.840Z,8.27
2022-12-25T22:52:05.389Z,8.25
2022-12-25T22:55:09.117Z,8.31
2022-12-25T22:58:11.580Z,8.28
2022-12-25T23:01:14.310Z,8.36
2022-12-25T23:04:17.658Z,8.32
2022-12-25T23:07:20.407Z,8.36
2022-12-25T23:10:22.884Z,8.37
2022-12-25T23:13:44.027Z,8.29
2022-12-25T23:16:46.476Z,8.29
2022-12-25T23:20:09.227Z,8.40
2022-12-25T23:23:34.633Z,8.28
2022-12-25T23:26:37.084Z,8.28
2022-12-25T23:29:41.508Z,8.34
2022-12-25T23:32:44.415Z,8.24
2022-12-25T23:35:46.938Z,8.11
2022-12-25T23:38:49.557Z,8.23
2022-12-25T23:41:52.046Z,8.29
2022-12-25T23:44:54.456Z,8.31
2022-12-25T23:47:56.822Z,8.32
2022-12-25T23:51:07.206Z,8.30
2022-12-25T23:54:15.810Z,8.43
2022-12-25T23:57:18.805Z,8.40
